Glidden, Iowa
Current Conditions -  °F | °C
As of 12:55 PM on Sunday 23 Nov 2014 (Local Time) from KCIN Reporting Station
Overcast Overcast  
Wind Chill: 39°   Ceiling: 3200
Heat Index: 46°   Visibility: 10mi
Dew Point: 41°   Wind: 21mph
Humidity: 81%   Direction: 320°NW
Pressure: 29.41"   Gusts: 29mph
Location:  42.06°N, 94.73°W
Report Text: KCIN 231855Z AUTO 32018G25KT 10SM FEW020 SCT026 OVC032 08/05 A2941 RMK AO2
Loading
Personal Weather Stations






























Interactive Weather Map New forecast layout! Learn more

10-Day Weather Forecast

Advertisements
Track Severe Weather on mobile